Starview, Pennsylvania
Current Conditions -  °F | °C
As of 2:56 AM on Thursday 23 Oct 2014 (Local Time) from KMDT Reporting Station
Overcast Overcast  
Wind Chill: 53°   Ceiling: 2800
Heat Index: 53°   Visibility: 10mi
Dew Point: 43°   Wind: 16mph
Humidity: 69%   Direction: 330°NNW
Pressure: 29.87"   Gusts: 26mph
Location:  40.0548°N, 76.6874°W
Report Text: KMDT 230656Z 33014G23KT 10SM OVC028 12/06 A2987 RMK AO2 PK WND 35028/0608 SLP116 T01170061
Loading
Personal Weather Stations






























Interactive Weather Map
Tropical Storm Tracking
New forecast layout! Learn more

10-Day Weather Forecast

Advertisements
Track Severe Weather on mobile